createdAt,value
2017-10-19T00:00:43.826Z,8.99
2017-10-19T00:01:49.826Z,8.96
2017-10-19T00:02:56.274Z,9.07
2017-10-19T00:04:01.948Z,9.04
2017-10-19T00:05:09.735Z,9.11
2017-10-19T00:06:15.858Z,9.23
2017-10-19T00:07:21.992Z,9.30
2017-10-19T00:08:27.938Z,9.29
2017-10-19T00:09:34.118Z,9.28
2017-10-19T00:10:40.254Z,9.31
2017-10-19T00:11:46.522Z,9.28
2017-10-19T00:12:52.895Z,9.27
2017-10-19T00:14:01.790Z,9.30
2017-10-19T00:15:09.315Z,9.25
2017-10-19T00:16:16.440Z,9.05
2017-10-19T00:17:22.718Z,8.84
2017-10-19T00:18:30.778Z,8.79
2017-10-19T00:19:36.967Z,8.85
2017-10-19T00:20:43.060Z,8.86
2017-10-19T00:21:49.008Z,8.79
2017-10-19T00:22:55.181Z,8.73
2017-10-19T00:24:01.268Z,8.61
2017-10-19T00:25:07.443Z,8.56
2017-10-19T00:26:13.557Z,8.57
2017-10-19T00:27:20.461Z,8.60
2017-10-19T00:28:26.616Z,8.72
2017-10-19T00:29:32.735Z,8.68
2017-10-19T00:30:38.660Z,8.65
2017-10-19T00:31:44.746Z,8.63
2017-10-19T00:32:50.499Z,8.64
2017-10-19T00:33:56.800Z,8.62
2017-10-19T00:35:02.922Z,8.61
2017-10-19T00:36:08.843Z,8.59
2017-10-19T00:37:14.944Z,8.60
2017-10-19T00:38:20.661Z,8.61
2017-10-19T00:39:26.433Z,8.63
2017-10-19T00:40:32.536Z,8.60
2017-10-19T00:41:38.635Z,8.41
2017-10-19T00:42:44.598Z,8.27
2017-10-19T00:43:50.690Z,8.27
2017-10-19T00:44:56.881Z,8.28
2017-10-19T00:46:03.013Z,8.28
2017-10-19T00:47:09.171Z,8.38
2017-10-19T00:48:18.913Z,8.48
2017-10-19T00:49:25.121Z,8.44
2017-10-19T00:50:31.236Z,8.48
2017-10-19T00:51:37.572Z,8.68
2017-10-19T00:52:43.654Z,8.73
2017-10-19T00:53:49.376Z,8.77
2017-10-19T00:54:55.446Z,8.64
2017-10-19T00:56:01.196Z,8.68
2017-10-19T00:57:06.759Z,8.76
2017-10-19T00:58:12.073Z,8.68
2017-10-19T00:59:17.627Z,8.60
2017-10-19T01:00:22.825Z,8.48
2017-10-19T01:01:27.340Z,8.59
2017-10-19T01:02:33.078Z,8.69
2017-10-19T01:03:39.163Z,8.70
2017-10-19T01:04:45.256Z,8.72
2017-10-19T01:05:51.368Z,8.67
2017-10-19T01:06:57.450Z,8.61
2017-10-19T01:08:03.578Z,8.53
2017-10-19T01:09:09.688Z,8.42
2017-10-19T01:10:15.869Z,8.32
2017-10-19T01:11:27.033Z,8.23
2017-10-19T01:12:32.789Z,8.18
2017-10-19T01:13:38.348Z,8.02
2017-10-19T01:14:44.042Z,7.97
2017-10-19T01:15:50.652Z,7.88
2017-10-19T01:16:56.543Z,7.90
2017-10-19T01:18:03.141Z,7.93
2017-10-19T01:19:08.522Z,8.04
2017-10-19T01:20:13.880Z,8.13
2017-10-19T01:21:19.281Z,8.09
2017-10-19T01:22:24.655Z,8.20
2017-10-19T01:23:30.117Z,8.34
2017-10-19T01:24:35.184Z,8.27
2017-10-19T01:25:40.574Z,8.38
2017-10-19T01:26:45.928Z,8.33
2017-10-19T01:27:51.649Z,8.25
2017-10-19T01:28:57.074Z,8.17
2017-10-19T01:30:02.467Z,8.05
2017-10-19T01:31:07.665Z,7.97
2017-10-19T01:32:13.360Z,7.81
2017-10-19T01:33:19.065Z,7.70
2017-10-19T01:34:24.402Z,7.59
2017-10-19T01:35:30.123Z,7.56
2017-10-19T01:36:35.470Z,7.52
2017-10-19T01:37:41.302Z,7.68
2017-10-19T01:38:46.657Z,7.75
2017-10-19T01:39:52.226Z,7.79
2017-10-19T01:40:57.618Z,7.84
2017-10-19T01:42:03.961Z,7.82
2017-10-19T01:43:09.855Z,7.83
2017-10-19T01:44:15.252Z,7.86
2017-10-19T01:45:20.637Z,7.82
2017-10-19T01:46:26.381Z,7.84
2017-10-19T01:47:31.867Z,7.78
2017-10-19T01:48:37.567Z,7.83
2017-10-19T01:50:00.777Z,7.84
2017-10-19T01:51:06.172Z,7.77
2017-10-19T01:52:12.191Z,7.74
2017-10-19T01:53:18.307Z,7.69
2017-10-19T01:54:24.411Z,7.68
2017-10-19T01:55:30.150Z,7.62
2017-10-19T01:56:36.257Z,7.81
2017-10-19T01:57:44.193Z,7.73
2017-10-19T01:58:49.911Z,7.73
2017-10-19T01:59:55.965Z,7.68
2017-10-19T02:01:01.873Z,7.67
2017-10-19T02:02:08.499Z,7.64
2017-10-19T02:03:22.879Z,7.57
2017-10-19T02:04:32.923Z,7.59
2017-10-19T02:05:39.071Z,7.52
2017-10-19T02:06:44.854Z,7.53
2017-10-19T02:07:50.616Z,7.64
2017-10-19T02:08:56.334Z,7.73
2017-10-19T02:10:02.423Z,7.69
2017-10-19T02:11:08.561Z,7.58
2017-10-19T02:12:14.633Z,7.69
2017-10-19T02:13:20.774Z,7.69
2017-10-19T02:14:26.528Z,7.51
2017-10-19T02:15:31.922Z,7.35
2017-10-19T02:16:38.017Z,7.30
2017-10-19T02:17:44.104Z,7.30
2017-10-19T02:18:50.199Z,7.38
2017-10-19T02:19:55.974Z,7.38
2017-10-19T02:21:02.115Z,7.39
2017-10-19T02:22:08.546Z,7.40
2017-10-19T02:23:14.659Z,7.41
2017-10-19T02:24:20.660Z,7.33
2017-10-19T02:25:26.816Z,7.26
2017-10-19T02:26:33.002Z,7.21
2017-10-19T02:27:39.135Z,7.22
2017-10-19T02:28:45.213Z,7.23
2017-10-19T02:31:33.848Z,7.15
2017-10-19T02:32:39.947Z,7.16
2017-10-19T02:33:46.056Z,7.24
2017-10-19T02:34:55.437Z,7.26
2017-10-19T02:36:01.586Z,7.39
2017-10-19T02:37:07.699Z,7.24
2017-10-19T02:38:13.627Z,7.33
2017-10-19T02:39:19.763Z,7.29
2017-10-19T02:40:25.913Z,7.29
2017-10-19T02:41:32.029Z,7.28
2017-10-19T02:42:38.191Z,7.34
2017-10-19T02:43:44.127Z,7.18
2017-10-19T02:44:50.240Z,7.21
2017-10-19T02:45:56.379Z,7.19
2017-10-19T02:47:02.483Z,7.15
2017-10-19T02:48:08.634Z,7.13
2017-10-19T02:49:14.756Z,7.10
2017-10-19T02:50:20.896Z,7.05
2017-10-19T02:51:27.024Z,7.16
2017-10-19T02:52:32.821Z,7.12
2017-10-19T02:53:38.948Z,7.21
2017-10-19T02:54:44.695Z,7.29
2017-10-19T02:55:50.475Z,7.35
2017-10-19T02:56:59.391Z,7.41
2017-10-19T02:58:05.304Z,7.45
2017-10-19T02:59:15.770Z,7.56
2017-10-19T03:00:21.557Z,7.48
2017-10-19T03:01:27.487Z,7.52
2017-10-19T03:02:33.238Z,7.50
2017-10-19T03:03:39.341Z,7.51
2017-10-19T03:04:45.627Z,7.48
2017-10-19T03:05:51.795Z,7.41
2017-10-19T03:06:57.667Z,7.43
2017-10-19T03:08:03.602Z,7.41
2017-10-19T03:09:08.982Z,7.46
2017-10-19T03:10:15.563Z,7.56
2017-10-19T03:11:21.680Z,7.63
2017-10-19T03:12:27.809Z,7.66
2017-10-19T03:13:33.589Z,7.62
2017-10-19T03:14:39.671Z,7.57
2017-10-19T03:15:45.788Z,7.58
2017-10-19T03:16:51.872Z,7.63
2017-10-19T03:17:58.112Z,7.59
2017-10-19T03:19:04.194Z,7.62
2017-10-19T03:20:10.318Z,7.49
2017-10-19T03:21:16.464Z,7.41
2017-10-19T03:22:22.583Z,7.39
2017-10-19T03:23:28.707Z,7.48
2017-10-19T03:24:34.807Z,7.45
2017-10-19T03:25:40.786Z,7.42
2017-10-19T03:26:46.902Z,7.46
2017-10-19T03:27:52.986Z,7.51
2017-10-19T03:28:59.079Z,7.55
2017-10-19T03:30:05.178Z,7.63
2017-10-19T03:31:11.324Z,7.70
2017-10-19T03:32:17.404Z,7.73
2017-10-19T03:33:23.503Z,7.74
2017-10-19T03:34:29.278Z,7.60
2017-10-19T03:35:35.029Z,7.60
2017-10-19T03:36:41.673Z,7.50
2017-10-19T03:44:40.081Z,7.21
2017-10-19T03:46:05.165Z,7.14
2017-10-19T03:47:25.267Z,7.17
2017-10-19T03:48:48.143Z,7.07
2017-10-19T03:50:11.325Z,7.03
2017-10-19T03:51:21.717Z,7.07
2017-10-19T03:52:28.722Z,7.22
2017-10-19T03:53:36.268Z,7.20
2017-10-19T03:54:42.403Z,7.18
2017-10-19T03:55:48.614Z,7.22
2017-10-19T03:56:55.258Z,7.37
2017-10-19T03:58:01.427Z,7.44
2017-10-19T03:59:07.701Z,7.41
2017-10-19T04:00:13.332Z,7.34
2017-10-19T04:01:22.715Z,7.33
2017-10-19T04:02:28.930Z,7.23
2017-10-19T04:03:35.117Z,7.26
2017-10-19T04:04:47.442Z,7.19
2017-10-19T04:05:58.664Z,7.13
2017-10-19T04:07:04.859Z,7.13
2017-10-19T04:08:10.967Z,7.20
2017-10-19T04:09:17.756Z,7.17
2017-10-19T04:10:23.881Z,7.16
2017-10-19T04:11:30.035Z,7.17
2017-10-19T04:12:36.271Z,7.26
2017-10-19T04:13:42.399Z,7.25
2017-10-19T04:14:48.334Z,7.17
2017-10-19T04:15:54.452Z,7.18
2017-10-19T04:17:00.636Z,7.13
2017-10-19T04:18:06.722Z,7.20
2017-10-19T04:19:12.922Z,7.26
2017-10-19T04:20:19.082Z,7.21
2017-10-19T04:21:25.263Z,7.16
2017-10-19T04:22:31.461Z,7.08
2017-10-19T04:23:38.898Z,7.06
2017-10-19T04:24:46.711Z,7.15
2017-10-19T04:25:54.609Z,7.15
2017-10-19T04:27:04.443Z,7.11
2017-10-19T04:28:10.834Z,7.06
2017-10-19T04:29:16.943Z,7.16
2017-10-19T04:30:24.164Z,7.18
2017-10-19T04:31:34.181Z,7.25
2017-10-19T04:32:46.477Z,7.17
2017-10-19T04:33:58.995Z,7.11
2017-10-19T04:35:11.904Z,7.14
2017-10-19T04:36:19.140Z,7.08
2017-10-19T04:37:30.382Z,7.10
2017-10-19T04:38:39.692Z,7.05
2017-10-19T04:39:52.488Z,6.98
2017-10-19T04:41:14.043Z,6.90
2017-10-19T04:42:28.140Z,6.97
2017-10-19T04:43:38.840Z,7.00
2017-10-19T04:44:52.877Z,7.03
2017-10-19T04:46:01.899Z,7.00
2017-10-19T04:47:25.222Z,7.09
2017-10-19T04:51:10.080Z,7.05
2017-10-19T04:52:20.669Z,7.01
2017-10-19T04:53:27.567Z,6.96
2017-10-19T04:54:36.023Z,6.98
2017-10-19T04:55:43.393Z,6.95
2017-10-19T04:56:51.022Z,6.98
2017-10-19T05:03:30.306Z,6.87
2017-10-19T05:04:39.762Z,6.92
2017-10-19T05:05:56.236Z,7.01
2017-10-19T05:07:06.623Z,6.96
2017-10-19T05:14:09.412Z,6.89
2017-10-19T05:15:29.436Z,6.83
2017-10-19T05:16:47.494Z,6.77
2017-10-19T05:21:44.898Z,6.92
2017-10-19T05:22:58.497Z,7.04
2017-10-19T05:24:45.923Z,6.98
2017-10-19T05:26:08.226Z,6.85
2017-10-19T06:17:17.297Z,6.81
2017-10-19T06:21:00.324Z,7.01
2017-10-19T06:22:09.382Z,7.13
2017-10-19T06:23:20.423Z,7.19
2017-10-19T06:24:39.888Z,7.30
2017-10-19T06:25:49.087Z,7.27
2017-10-19T06:26:58.165Z,7.31
2017-10-19T06:28:08.499Z,7.33
2017-10-19T06:29:18.367Z,7.28
2017-10-19T06:30:27.427Z,7.37
2017-10-19T06:31:33.647Z,7.41
2017-10-19T06:32:45.299Z,7.49
2017-10-19T06:33:53.474Z,7.51
2017-10-19T06:35:00.619Z,7.61
2017-10-19T06:36:10.265Z,7.63
2017-10-19T06:37:17.918Z,7.70
2017-10-19T06:38:24.310Z,7.65
2017-10-19T06:39:31.670Z,7.68
2017-10-19T06:40:39.489Z,7.67
2017-10-19T06:41:46.403Z,7.66
2017-10-19T06:42:52.705Z,7.65
2017-10-19T06:44:01.088Z,7.69
2017-10-19T06:45:08.726Z,7.76
2017-10-19T06:46:15.786Z,7.88
2017-10-19T06:47:23.337Z,7.98
2017-10-19T06:48:31.176Z,7.90
2017-10-19T06:49:37.351Z,7.97
2017-10-19T06:50:44.690Z,8.11
2017-10-19T06:51:51.952Z,8.13
2017-10-19T06:52:58.944Z,8.19
2017-10-19T06:54:06.277Z,8.31
2017-10-19T06:55:13.369Z,8.29
2017-10-19T06:56:20.252Z,8.36
2017-10-19T06:57:27.359Z,8.47
2017-10-19T06:58:33.994Z,8.50
2017-10-19T06:59:40.936Z,8.48
2017-10-19T07:00:47.316Z,8.49
2017-10-19T07:01:53.765Z,8.57
2017-10-19T07:03:00.073Z,8.65
2017-10-19T07:04:07.683Z,8.65
2017-10-19T07:05:14.057Z,8.70
2017-10-19T07:06:20.205Z,8.81
2017-10-19T07:07:26.525Z,8.87
2017-10-19T07:08:32.739Z,8.98
2017-10-19T07:09:39.260Z,9.02
2017-10-19T07:10:45.433Z,9.01
2017-10-19T07:11:51.657Z,9.16
2017-10-19T07:12:57.901Z,9.24
2017-10-19T07:14:04.133Z,9.40
2017-10-19T07:15:10.403Z,9.38
2017-10-19T07:16:16.554Z,9.40
2017-10-19T07:17:22.556Z,9.44
2017-10-19T07:18:28.910Z,9.51
2017-10-19T07:19:35.950Z,9.60
2017-10-19T07:20:42.368Z,9.67
2017-10-19T07:21:48.679Z,9.78
2017-10-19T07:22:54.895Z,9.86
2017-10-19T07:24:01.192Z,9.94
2017-10-19T07:25:07.412Z,10.06
2017-10-19T07:26:13.418Z,10.22
2017-10-19T07:27:19.852Z,10.21
2017-10-19T07:28:26.133Z,10.33
2017-10-19T07:29:32.321Z,10.42
2017-10-19T07:30:38.561Z,10.42
2017-10-19T07:31:44.871Z,10.51
2017-10-19T07:32:50.665Z,10.60
2017-10-19T07:33:56.565Z,10.60
2017-10-19T07:35:03.251Z,10.66
2017-10-19T07:36:09.680Z,10.70
2017-10-19T07:37:15.857Z,10.76
2017-10-19T07:38:22.159Z,10.84
2017-10-19T07:39:27.923Z,10.92
2017-10-19T07:40:34.193Z,11.01
2017-10-19T07:41:40.513Z,11.10
2017-10-19T07:42:46.763Z,11.24
2017-10-19T07:43:53.572Z,11.37
2017-10-19T07:44:59.795Z,11.39
2017-10-19T07:46:06.210Z,11.40
2017-10-19T07:47:12.425Z,11.49
2017-10-19T07:48:19.140Z,11.58
2017-10-19T07:49:25.565Z,11.70
2017-10-19T07:50:31.735Z,11.89
2017-10-19T07:51:38.075Z,11.95
2017-10-19T07:52:44.765Z,11.95
2017-10-19T07:53:50.999Z,11.95
2017-10-19T07:54:57.256Z,11.87
2017-10-19T07:56:03.644Z,11.81
2017-10-19T07:57:09.854Z,11.86
2017-10-19T07:58:16.975Z,11.95
2017-10-19T07:59:28.919Z,12.09
2017-10-19T08:00:36.151Z,12.23
2017-10-19T08:01:47.682Z,12.47
2017-10-19T08:03:08.840Z,12.58
2017-10-19T08:07:44.681Z,12.61
2017-10-19T08:09:10.446Z,12.69
2017-10-19T08:54:59.483Z,14.34
2017-10-19T08:56:35.088Z,13.98
2017-10-19T11:04:47.639Z,20.68
2017-10-19T11:06:21.375Z,20.14
2017-10-19T11:07:27.705Z,20.33
2017-10-19T11:09:09.206Z,20.61
2017-10-19T11:10:26.736Z,20.78
2017-10-19T11:11:45.236Z,20.82
2017-10-19T11:13:07.680Z,20.77
2017-10-19T11:14:21.550Z,20.51
2017-10-19T11:46:01.022Z,21.03
2017-10-19T11:47:08.049Z,21.17
2017-10-19T11:48:15.124Z,21.21
2017-10-19T11:49:22.341Z,21.35
2017-10-19T11:50:29.549Z,21.43
2017-10-19T11:51:36.752Z,21.47
2017-10-19T11:52:43.868Z,21.57
2017-10-19T11:53:50.907Z,21.56
2017-10-19T11:54:58.177Z,21.68
2017-10-19T11:56:05.302Z,21.83
2017-10-19T11:57:12.391Z,21.98
2017-10-19T11:58:19.743Z,21.86
2017-10-19T11:59:26.744Z,21.91
2017-10-19T12:00:33.838Z,22.16
2017-10-19T12:01:40.984Z,22.32
2017-10-19T12:02:48.163Z,22.44
2017-10-19T12:03:55.370Z,22.60
2017-10-19T12:05:04.229Z,22.63
2017-10-19T12:06:13.678Z,22.77
2017-10-19T12:07:20.871Z,22.60
2017-10-19T12:08:28.048Z,22.58
2017-10-19T12:09:35.273Z,22.67
2017-10-19T12:10:44.818Z,22.54
2017-10-19T12:11:51.829Z,22.75
2017-10-19T12:12:58.943Z,22.94
2017-10-19T12:14:06.172Z,22.91
2017-10-19T12:15:15.112Z,22.97
2017-10-19T12:16:22.052Z,23.02
2017-10-19T12:17:28.984Z,23.12
2017-10-19T12:18:36.081Z,23.27
2017-10-19T12:19:43.229Z,23.43
2017-10-19T12:20:50.365Z,23.59
2017-10-19T12:21:57.507Z,23.66
2017-10-19T12:23:04.505Z,23.54
2017-10-19T12:24:11.841Z,23.58
2017-10-19T12:25:18.963Z,23.42
2017-10-19T12:26:26.429Z,23.59
2017-10-19T12:27:34.910Z,23.69
2017-10-19T12:28:42.214Z,23.43
2017-10-19T12:29:49.147Z,23.56
2017-10-19T12:30:56.304Z,23.77
2017-10-19T12:32:03.854Z,23.87
2017-10-19T12:33:12.112Z,23.88
2017-10-19T12:34:20.726Z,23.86
2017-10-19T12:35:31.264Z,23.65
2017-10-19T12:36:38.560Z,24.01
2017-10-19T12:37:46.731Z,24.26
2017-10-19T12:38:56.653Z,24.42
2017-10-19T12:40:04.050Z,24.50
2017-10-19T12:41:11.690Z,24.74
2017-10-19T12:42:20.563Z,25.00
2017-10-19T12:43:28.303Z,25.28
2017-10-19T12:44:36.196Z,25.59
2017-10-19T12:45:46.600Z,25.60
2017-10-19T12:46:56.501Z,25.30
2017-10-19T12:48:04.140Z,25.60
2017-10-19T12:49:12.249Z,26.21
2017-10-19T12:50:19.091Z,26.95
2017-10-19T12:51:28.712Z,27.47
2017-10-19T12:52:36.510Z,27.16
2017-10-19T12:53:45.537Z,27.93
2017-10-19T12:54:53.368Z,28.49
2017-10-19T12:56:04.919Z,28.69
2017-10-19T12:57:12.174Z,28.46
2017-10-19T12:58:20.792Z,28.90
2017-10-19T12:59:27.573Z,29.25
2017-10-19T13:00:34.991Z,29.11
2017-10-19T13:01:41.210Z,29.46
2017-10-19T13:02:47.289Z,29.25
2017-10-19T13:03:55.366Z,29.53
2017-10-19T13:05:02.253Z,29.73
2017-10-19T13:07:26.070Z,29.47
2017-10-19T13:08:32.424Z,30.13
2017-10-19T13:09:38.921Z,30.39
2017-10-19T13:10:50.634Z,30.29
2017-10-19T13:11:57.899Z,30.02
2017-10-19T13:13:05.496Z,29.95
2017-10-19T13:14:14.161Z,30.74
2017-10-19T13:15:22.147Z,31.00
2017-10-19T13:16:29.685Z,31.16
2017-10-19T13:17:35.927Z,30.83
2017-10-19T13:18:42.383Z,30.85
2017-10-19T13:19:48.844Z,31.38
2017-10-19T13:20:55.614Z,31.31
2017-10-19T13:22:03.516Z,30.87
2017-10-19T13:23:11.367Z,30.48
2017-10-19T13:24:18.901Z,29.50
2017-10-19T13:25:26.917Z,28.71
2017-10-19T13:26:38.254Z,28.50
2017-10-19T13:27:44.074Z,28.08
2017-10-19T13:28:53.361Z,27.92
2017-10-19T13:30:00.140Z,27.72
2017-10-19T13:31:07.994Z,27.85
2017-10-19T13:32:14.517Z,27.71
2017-10-19T13:33:22.834Z,27.61
2017-10-19T13:34:31.017Z,27.18
2017-10-19T13:35:38.123Z,26.82
2017-10-19T13:36:48.338Z,27.09
2017-10-19T13:37:54.667Z,26.93
2017-10-19T13:39:00.764Z,27.23
2017-10-19T13:40:06.982Z,27.04
2017-10-19T13:41:13.020Z,26.62
2017-10-19T13:42:19.385Z,26.47
2017-10-19T13:43:28.992Z,25.58
2017-10-19T13:44:35.718Z,25.38
2017-10-19T13:45:42.036Z,25.07
2017-10-19T13:46:48.605Z,25.45
2017-10-19T13:47:55.654Z,26.04
2017-10-19T13:49:02.301Z,25.94
2017-10-19T13:50:08.400Z,26.81
2017-10-19T13:51:17.103Z,27.71
2017-10-19T13:52:23.314Z,28.41
2017-10-19T13:53:29.446Z,29.20
2017-10-19T13:54:36.571Z,29.68
2017-10-19T13:55:44.745Z,28.62
2017-10-19T13:56:51.371Z,29.02
2017-10-19T13:57:57.797Z,28.73
2017-10-19T13:59:03.729Z,28.70
2017-10-19T14:00:10.108Z,29.50
2017-10-19T14:01:16.171Z,29.57
2017-10-19T14:02:22.645Z,29.72
2017-10-19T14:03:29.046Z,29.66
2017-10-19T14:04:34.791Z,29.92
2017-10-19T14:05:40.921Z,29.86
2017-10-19T14:06:47.324Z,30.03
2017-10-19T14:07:53.598Z,30.65
2017-10-19T14:08:59.550Z,30.85
2017-10-19T14:10:05.818Z,31.12
2017-10-19T14:11:13.031Z,31.49
2017-10-19T14:12:20.055Z,31.62
2017-10-19T14:13:27.511Z,31.31
2017-10-19T14:14:34.887Z,31.02
2017-10-19T14:15:41.313Z,30.52
2017-10-19T14:16:47.370Z,29.76
2017-10-19T14:17:53.287Z,29.49
2017-10-19T14:19:01.505Z,28.69
2017-10-19T14:20:07.756Z,28.26
2017-10-19T14:21:14.380Z,27.56
2017-10-19T14:22:20.743Z,27.12
2017-10-19T14:23:27.665Z,26.78
2017-10-19T14:24:34.006Z,26.47
2017-10-19T14:25:40.072Z,26.24
2017-10-19T14:26:46.095Z,25.88
2017-10-19T14:27:52.143Z,25.88
2017-10-19T14:28:58.324Z,26.13
2017-10-19T14:30:05.576Z,26.44
2017-10-19T14:31:11.280Z,26.66
2017-10-19T14:32:18.230Z,26.40
2017-10-19T14:33:24.745Z,26.34
2017-10-19T14:34:30.938Z,26.36
2017-10-19T14:35:37.067Z,26.10
2017-10-19T14:36:43.146Z,25.67
2017-10-19T14:37:48.953Z,25.49
2017-10-19T14:38:54.917Z,25.89
2017-10-19T14:40:01.151Z,25.93
2017-10-19T14:41:07.081Z,26.42
2017-10-19T14:42:13.072Z,27.34
2017-10-19T14:43:20.409Z,27.57
2017-10-19T14:44:30.559Z,27.55
2017-10-19T14:45:36.818Z,27.97
2017-10-19T14:46:43.277Z,27.96
2017-10-19T14:47:50.057Z,28.29
2017-10-19T14:48:56.523Z,27.76
2017-10-19T14:50:02.213Z,28.41
2017-10-19T14:51:08.430Z,28.47
2017-10-19T14:52:14.679Z,28.49
2017-10-19T14:53:26.960Z,29.20
2017-10-19T14:54:33.961Z,28.65
2017-10-19T14:55:41.321Z,28.12
2017-10-19T14:56:51.065Z,27.75
2017-10-19T14:58:26.145Z,27.03
2017-10-19T16:23:06.164Z,16.39
2017-10-19T16:24:20.538Z,16.36
2017-10-19T16:25:36.353Z,16.27
2017-10-19T16:26:47.249Z,16.30
2017-10-19T16:28:02.668Z,16.29
2017-10-19T16:29:19.043Z,16.20
2017-10-19T16:30:33.307Z,16.08
2017-10-19T16:31:48.015Z,16.02
2017-10-19T16:32:57.183Z,16.02
2017-10-19T16:34:08.625Z,15.72
2017-10-19T16:35:17.325Z,15.72
2017-10-19T16:36:30.148Z,15.72
2017-10-19T16:37:52.189Z,15.64
2017-10-19T16:39:13.665Z,15.67
2017-10-19T16:40:23.593Z,15.67
2017-10-19T16:41:33.033Z,15.52
2017-10-19T16:44:02.466Z,15.34
2017-10-19T16:45:35.022Z,15.25
2017-10-19T16:46:41.341Z,15.12
2017-10-19T16:49:32.857Z,15.15
2017-10-19T16:50:41.422Z,15.17
2017-10-19T16:51:48.355Z,15.18
2017-10-19T16:52:58.208Z,15.08
2017-10-19T16:54:09.471Z,15.06
2017-10-19T16:55:20.062Z,14.94
2017-10-19T16:56:32.419Z,14.95
2017-10-19T16:57:47.954Z,14.91
2017-10-19T17:06:54.055Z,14.70
2017-10-19T17:08:09.905Z,14.53
2017-10-19T17:09:30.178Z,14.58
2017-10-19T17:12:39.168Z,14.78
2017-10-19T20:57:08.994Z,11.61
2017-10-19T20:58:15.440Z,11.55
2017-10-19T20:59:22.255Z,11.66
2017-10-19T21:00:28.475Z,11.64
2017-10-19T21:01:35.392Z,11.61
2017-10-19T21:02:43.545Z,11.54
2017-10-19T21:03:51.026Z,11.50
2017-10-19T21:04:57.941Z,11.46
2017-10-19T21:06:04.649Z,11.54
2017-10-19T21:07:12.578Z,11.44
2017-10-19T21:08:19.127Z,11.43
2017-10-19T21:09:25.614Z,11.42
2017-10-19T21:10:33.290Z,11.42
2017-10-19T21:11:40.828Z,11.46
2017-10-19T21:14:02.533Z,11.50
2017-10-19T21:15:10.283Z,11.52
2017-10-19T21:16:20.475Z,11.40
2017-10-19T21:17:29.134Z,11.33
2017-10-19T21:18:35.453Z,11.33
2017-10-19T21:19:43.021Z,11.29
2017-10-19T21:20:52.897Z,11.25
2017-10-19T21:22:00.219Z,11.23
2017-10-19T21:23:07.693Z,11.24
2017-10-19T21:24:15.707Z,11.21
2017-10-19T21:25:22.080Z,11.16
2017-10-19T21:26:30.129Z,11.16
2017-10-19T21:31:47.462Z,11.12
2017-10-19T21:32:53.868Z,11.10
2017-10-19T21:34:00.856Z,11.08
2017-10-19T21:38:32.500Z,11.09
2017-10-19T21:39:40.355Z,11.23
2017-10-19T21:40:46.760Z,11.23
2017-10-19T21:41:54.027Z,11.09
2017-10-19T21:43:01.753Z,11.04
2017-10-19T21:44:09.321Z,10.97
2017-10-19T21:45:16.593Z,10.88
2017-10-19T21:46:24.053Z,10.96
2017-10-19T21:47:30.590Z,11.09
2017-10-19T21:48:36.979Z,11.01
2017-10-19T21:49:44.424Z,10.99
2017-10-19T21:50:52.885Z,10.93
2017-10-19T21:51:59.901Z,10.83
2017-10-19T21:53:06.228Z,10.94
2017-10-19T21:54:13.054Z,11.02
2017-10-19T21:55:19.481Z,10.92
2017-10-19T21:56:27.319Z,10.71
2017-10-19T21:57:34.488Z,10.84
2017-10-19T21:58:41.878Z,10.92
2017-10-19T21:59:48.526Z,10.86
2017-10-19T22:00:54.409Z,10.81
2017-10-19T22:02:01.647Z,10.80
2017-10-19T22:03:07.653Z,10.92
2017-10-19T22:04:14.684Z,10.84
2017-10-19T22:05:21.790Z,10.86
2017-10-19T22:06:29.338Z,10.73
2017-10-19T22:07:36.673Z,10.75
2017-10-19T22:08:43.492Z,10.82
2017-10-19T22:09:49.798Z,10.75
2017-10-19T22:10:56.948Z,10.76
2017-10-19T22:12:03.891Z,10.85
2017-10-19T22:13:14.653Z,10.64
2017-10-19T22:14:21.815Z,10.74
2017-10-19T22:15:30.778Z,10.74
2017-10-19T22:16:40.099Z,10.61
2017-10-19T22:17:53.113Z,10.72
2017-10-19T22:19:01.478Z,10.62
2017-10-19T22:20:09.527Z,10.74
2017-10-19T22:21:19.576Z,10.69
2017-10-19T22:22:25.942Z,10.89
2017-10-19T22:23:32.250Z,10.91
2017-10-19T22:24:39.534Z,10.83
2017-10-19T22:26:57.440Z,10.84
2017-10-19T22:28:04.661Z,10.69
2017-10-19T22:29:12.712Z,10.71
2017-10-19T22:30:22.230Z,10.74
2017-10-19T22:31:29.738Z,10.68
2017-10-19T22:32:36.037Z,10.74
2017-10-19T22:33:43.388Z,10.78
2017-10-19T22:34:51.084Z,10.81
2017-10-19T22:35:58.240Z,10.78
2017-10-19T22:37:05.281Z,10.70
2017-10-19T22:38:15.389Z,10.86
2017-10-19T22:39:21.975Z,10.94
2017-10-19T22:40:29.846Z,10.95
2017-10-19T22:41:36.367Z,11.00
2017-10-19T22:42:42.696Z,10.89
2017-10-19T22:43:49.303Z,10.79
2017-10-19T22:44:55.815Z,10.89
2017-10-19T22:46:02.230Z,10.87
2017-10-19T22:47:08.560Z,10.81
2017-10-19T22:48:14.852Z,10.84
2017-10-19T22:49:21.479Z,10.89
2017-10-19T22:50:27.886Z,10.86
2017-10-19T22:51:34.096Z,10.84
2017-10-19T22:52:40.307Z,10.86
2017-10-19T22:53:47.551Z,10.82
2017-10-19T22:54:54.882Z,10.84
2017-10-19T22:56:02.105Z,10.80
2017-10-19T22:57:11.406Z,10.90
2017-10-19T22:58:18.412Z,10.90
2017-10-19T22:59:24.733Z,10.90
2017-10-19T23:00:31.478Z,10.78
2017-10-19T23:01:37.572Z,10.81
2017-10-19T23:02:46.102Z,10.84
2017-10-19T23:03:53.971Z,11.04
2017-10-19T23:05:01.316Z,11.11
2017-10-19T23:06:08.125Z,10.97
2017-10-19T23:07:14.653Z,11.10
2017-10-19T23:08:21.192Z,11.18
2017-10-19T23:09:28.494Z,11.25
2017-10-19T23:10:36.508Z,11.26
2017-10-19T23:11:44.901Z,11.14
2017-10-19T23:12:53.575Z,10.98
2017-10-19T23:13:59.983Z,10.90
2017-10-19T23:15:06.205Z,11.05
2017-10-19T23:17:54.973Z,11.09
2017-10-19T23:19:01.135Z,11.03
2017-10-19T23:20:07.315Z,11.06
2017-10-19T23:21:13.479Z,11.04
2017-10-19T23:22:19.454Z,11.02
2017-10-19T23:23:25.473Z,10.98
2017-10-19T23:24:31.649Z,10.94
2017-10-19T23:25:38.642Z,10.88
2017-10-19T23:26:44.897Z,10.83
2017-10-19T23:27:51.087Z,10.86
2017-10-19T23:28:57.248Z,10.82
2017-10-19T23:30:04.502Z,10.76
2017-10-19T23:31:11.317Z,10.71
2017-10-19T23:32:17.550Z,10.74
2017-10-19T23:33:23.896Z,10.78
2017-10-19T23:34:30.098Z,10.71
2017-10-19T23:35:36.403Z,10.75
2017-10-19T23:36:42.605Z,10.85
2017-10-19T23:37:48.766Z,10.89
2017-10-19T23:38:55.043Z,10.96
2017-10-19T23:40:01.271Z,10.81
2017-10-19T23:41:07.475Z,10.73
2017-10-19T23:42:13.570Z,10.77
2017-10-19T23:43:19.786Z,10.76
2017-10-19T23:44:26.385Z,10.77
2017-10-19T23:45:32.796Z,10.83
2017-10-19T23:46:39.833Z,10.79
2017-10-19T23:47:47.562Z,10.76
2017-10-19T23:48:54.581Z,10.79
2017-10-19T23:50:01.885Z,10.77
2017-10-19T23:51:08.551Z,10.76
2017-10-19T23:52:14.802Z,10.79
2017-10-19T23:53:21.105Z,10.78
2017-10-19T23:54:27.322Z,10.80
2017-10-19T23:55:33.519Z,10.89
2017-10-19T23:56:40.321Z,10.93
2017-10-19T23:57:46.526Z,11.08
2017-10-19T23:58:53.448Z,10.94
2017-10-19T23:59:59.835Z,10.81
